SLCO/CIJ METAR and TAF weather

Enter ICAO airport designator
Station Type Date Time Source
SLCO METAR 2021/07/26 16:00 UTC NOAA

SLCO 261600Z 31005KT 9999 FEW033 33/24 Q1014


Station Type Date Time Source
SLCO Decoded METAR 2021/07/26 16:00 UTC NOAA

Cobija, Bolivia (SLCO) 11-02S 068-47W 260M
Jul 26, 2021 - 12:00 PM EDT / 2021.07.26 1600 UTC
Wind: from the NW (310 degrees) at 6 MPH (5 KT):0
Visibility: greater than 7 mile(s):0
Sky conditions: mostly clear
Temperature: 91 F (33 C)
Heat index: 101.5 F (38.6 C):1
Dew Point: 75 F (24 C)
Relative Humidity: 59%
Pressure (altimeter): 29.94 in. Hg (1014 hPa)
ob: SLCO 261600Z 31005KT 9999 FEW033 33/24 Q1014
cycle: 16

Station Type Date Time Source
SLCO TAF 2021/07/26 12:24 UTC NOAA

TAF SLCO 261000Z 2612/2712 33010KT 8000 FEW023 TX34/2620Z TN18/2710Z
BECMG 2623/2703 00000KT SCT012

Example: see airport list